sensor_id;sensor_type;location;lat;lon;timestamp;P1;durP1;ratioP1;P2;durP2;ratioP2
31206;SDS011;17834;52.992;8.856;2023-01-23T00:00:51;11.30;;;5.13;;
31206;SDS011;17834;52.992;8.856;2023-01-23T00:03:17;13.95;;;5.72;;
31206;SDS011;17834;52.992;8.856;2023-01-23T00:05:43;9.00;;;5.57;;
31206;SDS011;17834;52.992;8.856;2023-01-23T00:08:10;9.10;;;5.32;;
31206;SDS011;17834;52.992;8.856;2023-01-23T00:10:39;8.75;;;4.97;;
31206;SDS011;17834;52.992;8.856;2023-01-23T00:13:05;9.10;;;4.95;;
31206;SDS011;17834;52.992;8.856;2023-01-23T00:15:31;11.40;;;5.60;;
31206;SDS011;17834;52.992;8.856;2023-01-23T00:17:57;8.85;;;5.40;;
31206;SDS011;17834;52.992;8.856;2023-01-23T00:20:23;10.25;;;5.15;;
31206;SDS011;17834;52.992;8.856;2023-01-23T00:22:49;11.52;;;5.22;;
31206;SDS011;17834;52.992;8.856;2023-01-23T00:25:15;8.20;;;4.60;;
31206;SDS011;17834;52.992;8.856;2023-01-23T00:27:41;9.77;;;5.53;;
31206;SDS011;17834;52.992;8.856;2023-01-23T00:30:07;10.18;;;5.80;;
31206;SDS011;17834;52.992;8.856;2023-01-23T00:32:33;12.45;;;5.13;;
31206;SDS011;17834;52.992;8.856;2023-01-23T00:34:59;9.20;;;4.88;;
31206;SDS011;17834;52.992;8.856;2023-01-23T00:37:25;8.27;;;5.55;;
31206;SDS011;17834;52.992;8.856;2023-01-23T00:39:51;10.07;;;5.20;;
31206;SDS011;17834;52.992;8.856;2023-01-23T00:42:17;10.70;;;5.68;;
31206;SDS011;17834;52.992;8.856;2023-01-23T00:44:43;11.35;;;5.68;;
31206;SDS011;17834;52.992;8.856;2023-01-23T00:47:09;9.05;;;4.57;;
31206;SDS011;17834;52.992;8.856;2023-01-23T00:49:35;9.60;;;4.85;;
31206;SDS011;17834;52.992;8.856;2023-01-23T00:52:01;11.60;;;5.03;;
31206;SDS011;17834;52.992;8.856;2023-01-23T00:54:27;11.65;;;5.00;;
31206;SDS011;17834;52.992;8.856;2023-01-23T00:56:53;10.25;;;5.10;;
31206;SDS011;17834;52.992;8.856;2023-01-23T00:59:19;7.15;;;4.13;;
31206;SDS011;17834;52.992;8.856;2023-01-23T01:01:45;8.45;;;4.63;;
31206;SDS011;17834;52.992;8.856;2023-01-23T01:04:11;8.73;;;5.15;;
31206;SDS011;17834;52.992;8.856;2023-01-23T01:06:37;10.38;;;4.53;;
31206;SDS011;17834;52.992;8.856;2023-01-23T01:09:03;8.30;;;4.03;;
31206;SDS011;17834;52.992;8.856;2023-01-23T01:11:29;8.82;;;4.68;;
31206;SDS011;17834;52.992;8.856;2023-01-23T01:13:55;10.23;;;5.20;;
31206;SDS011;17834;52.992;8.856;2023-01-23T01:16:21;9.70;;;4.88;;
31206;SDS011;17834;52.992;8.856;2023-01-23T01:18:50;6.97;;;4.20;;
31206;SDS011;17834;52.992;8.856;2023-01-23T01:21:17;12.05;;;4.95;;
31206;SDS011;17834;52.992;8.856;2023-01-23T01:23:43;8.60;;;4.97;;
31206;SDS011;17834;52.992;8.856;2023-01-23T01:26:09;11.05;;;4.47;;
31206;SDS011;17834;52.992;8.856;2023-01-23T01:28:36;7.85;;;4.20;;
31206;SDS011;17834;52.992;8.856;2023-01-23T01:31:04;10.95;;;4.60;;
31206;SDS011;17834;52.992;8.856;2023-01-23T01:33:31;11.45;;;5.03;;
31206;SDS011;17834;52.992;8.856;2023-01-23T01:35:58;11.25;;;5.32;;
31206;SDS011;17834;52.992;8.856;2023-01-23T01:38:24;8.35;;;4.35;;
31206;SDS011;17834;52.992;8.856;2023-01-23T01:40:50;8.05;;;4.18;;
31206;SDS011;17834;52.992;8.856;2023-01-23T01:43:17;8.38;;;4.53;;
31206;SDS011;17834;52.992;8.856;2023-01-23T01:48:54;9.00;;;4.63;;
31206;SDS011;17834;52.992;8.856;2023-01-23T01:53:41;8.55;;;4.55;;
31206;SDS011;17834;52.992;8.856;2023-01-23T01:56:08;8.02;;;4.35;;
31206;SDS011;17834;52.992;8.856;2023-01-23T01:58:36;7.13;;;4.70;;
31206;SDS011;17834;52.992;8.856;2023-01-23T02:01:02;8.95;;;4.25;;
31206;SDS011;17834;52.992;8.856;2023-01-23T02:03:28;7.30;;;4.03;;
31206;SDS011;17834;52.992;8.856;2023-01-23T02:05:54;7.22;;;4.18;;
31206;SDS011;17834;52.992;8.856;2023-01-23T02:08:22;6.90;;;4.00;;
31206;SDS011;17834;52.992;8.856;2023-01-23T02:10:50;9.35;;;4.78;;
31206;SDS011;17834;52.992;8.856;2023-01-23T02:13:18;7.65;;;3.85;;
31206;SDS011;17834;52.992;8.856;2023-01-23T02:15:44;8.73;;;4.20;;
31206;SDS011;17834;52.992;8.856;2023-01-23T02:18:11;8.23;;;4.40;;
31206;SDS011;17834;52.992;8.856;2023-01-23T02:20:36;7.50;;;4.18;;
31206;SDS011;17834;52.992;8.856;2023-01-23T02:23:16;10.70;;;4.18;;
31206;SDS011;17834;52.992;8.856;2023-01-23T02:28:17;9.70;;;4.78;;
31206;SDS011;17834;52.992;8.856;2023-01-23T02:30:43;7.70;;;4.32;;
31206;SDS011;17834;52.992;8.856;2023-01-23T02:35:46;7.15;;;3.97;;
31206;SDS011;17834;52.992;8.856;2023-01-23T02:38:12;9.60;;;4.55;;
31206;SDS011;17834;52.992;8.856;2023-01-23T02:40:39;8.82;;;4.80;;
31206;SDS011;17834;52.992;8.856;2023-01-23T02:43:06;10.07;;;5.07;;
31206;SDS011;17834;52.992;8.856;2023-01-23T02:45:33;7.65;;;4.82;;
31206;SDS011;17834;52.992;8.856;2023-01-23T02:48:00;7.47;;;4.07;;
31206;SDS011;17834;52.992;8.856;2023-01-23T02:50:29;7.97;;;3.65;;
31206;SDS011;17834;52.992;8.856;2023-01-23T02:52:55;9.52;;;4.43;;
31206;SDS011;17834;52.992;8.856;2023-01-23T02:55:22;7.78;;;3.88;;
31206;SDS011;17834;52.992;8.856;2023-01-23T02:57:50;10.60;;;4.65;;
31206;SDS011;17834;52.992;8.856;2023-01-23T03:00:16;10.50;;;4.55;;
31206;SDS011;17834;52.992;8.856;2023-01-23T03:02:53;7.78;;;3.92;;
31206;SDS011;17834;52.992;8.856;2023-01-23T03:05:20;9.82;;;4.68;;
31206;SDS011;17834;52.992;8.856;2023-01-23T03:07:46;8.73;;;4.63;;
31206;SDS011;17834;52.992;8.856;2023-01-23T03:10:12;10.63;;;4.50;;
31206;SDS011;17834;52.992;8.856;2023-01-23T03:12:38;9.85;;;4.78;;
31206;SDS011;17834;52.992;8.856;2023-01-23T03:15:07;6.75;;;4.35;;
31206;SDS011;17834;52.992;8.856;2023-01-23T03:17:34;10.02;;;5.50;;
31206;SDS011;17834;52.992;8.856;2023-01-23T03:20:00;8.90;;;4.95;;
31206;SDS011;17834;52.992;8.856;2023-01-23T03:22:28;8.63;;;4.72;;
31206;SDS011;17834;52.992;8.856;2023-01-23T03:24:54;6.47;;;4.07;;
31206;SDS011;17834;52.992;8.856;2023-01-23T03:27:21;12.55;;;5.30;;
31206;SDS011;17834;52.992;8.856;2023-01-23T03:29:47;9.48;;;4.40;;
31206;SDS011;17834;52.992;8.856;2023-01-23T03:32:32;9.30;;;4.72;;
31206;SDS011;17834;52.992;8.856;2023-01-23T03:34:58;8.80;;;4.55;;
31206;SDS011;17834;52.992;8.856;2023-01-23T03:37:24;8.48;;;4.57;;
31206;SDS011;17834;52.992;8.856;2023-01-23T03:39:50;8.45;;;4.50;;
31206;SDS011;17834;52.992;8.856;2023-01-23T03:42:35;11.20;;;4.53;;
31206;SDS011;17834;52.992;8.856;2023-01-23T03:45:01;10.45;;;4.63;;
31206;SDS011;17834;52.992;8.856;2023-01-23T03:47:27;8.85;;;4.35;;
31206;SDS011;17834;52.992;8.856;2023-01-23T03:49:53;9.88;;;4.45;;
31206;SDS011;17834;52.992;8.856;2023-01-23T03:52:19;7.97;;;4.25;;
31206;SDS011;17834;52.992;8.856;2023-01-23T03:54:45;7.13;;;4.15;;
31206;SDS011;17834;52.992;8.856;2023-01-23T03:57:11;7.70;;;4.65;;
31206;SDS011;17834;52.992;8.856;2023-01-23T03:59:37;7.10;;;4.32;;
31206;SDS011;17834;52.992;8.856;2023-01-23T04:02:03;10.98;;;6.47;;
31206;SDS011;17834;52.992;8.856;2023-01-23T04:04:29;8.55;;;5.18;;
31206;SDS011;17834;52.992;8.856;2023-01-23T04:06:55;6.78;;;4.68;;
31206;SDS011;17834;52.992;8.856;2023-01-23T04:09:21;12.05;;;4.45;;
31206;SDS011;17834;52.992;8.856;2023-01-23T04:11:51;9.57;;;4.85;;
31206;SDS011;17834;52.992;8.856;2023-01-23T04:14:17;10.75;;;5.03;;
31206;SDS011;17834;52.992;8.856;2023-01-23T04:16:43;8.88;;;4.50;;
31206;SDS011;17834;52.992;8.856;2023-01-23T04:19:09;9.00;;;4.55;;
31206;SDS011;17834;52.992;8.856;2023-01-23T04:21:35;8.70;;;4.68;;
31206;SDS011;17834;52.992;8.856;2023-01-23T04:24:01;12.38;;;4.38;;
31206;SDS011;17834;52.992;8.856;2023-01-23T04:26:27;9.07;;;4.53;;
31206;SDS011;17834;52.992;8.856;2023-01-23T04:28:53;6.88;;;4.50;;
31206;SDS011;17834;52.992;8.856;2023-01-23T04:31:19;10.15;;;4.95;;
31206;SDS011;17834;52.992;8.856;2023-01-23T04:33:45;10.57;;;4.85;;
31206;SDS011;17834;52.992;8.856;2023-01-23T04:36:11;13.13;;;5.05;;
31206;SDS011;17834;52.992;8.856;2023-01-23T04:38:37;9.52;;;4.45;;
31206;SDS011;17834;52.992;8.856;2023-01-23T04:41:03;11.10;;;4.97;;
31206;SDS011;17834;52.992;8.856;2023-01-23T04:43:30;7.03;;;4.75;;
31206;SDS011;17834;52.992;8.856;2023-01-23T04:45:56;7.32;;;4.63;;
31206;SDS011;17834;52.992;8.856;2023-01-23T04:48:22;8.10;;;4.00;;
31206;SDS011;17834;52.992;8.856;2023-01-23T04:50:49;6.65;;;4.45;;
31206;SDS011;17834;52.992;8.856;2023-01-23T04:53:15;19.98;;;13.93;;
31206;SDS011;17834;52.992;8.856;2023-01-23T04:55:41;14.80;;;11.02;;
31206;SDS011;17834;52.992;8.856;2023-01-23T04:58:07;10.85;;;6.03;;
31206;SDS011;17834;52.992;8.856;2023-01-23T05:00:35;10.75;;;5.88;;
31206;SDS011;17834;52.992;8.856;2023-01-23T05:03:01;8.55;;;5.05;;
31206;SDS011;17834;52.992;8.856;2023-01-23T05:05:27;11.18;;;5.05;;
31206;SDS011;17834;52.992;8.856;2023-01-23T05:07:53;9.95;;;5.40;;
31206;SDS011;17834;52.992;8.856;2023-01-23T05:10:19;11.80;;;5.03;;
31206;SDS011;17834;52.992;8.856;2023-01-23T05:12:45;11.63;;;5.30;;
31206;SDS011;17834;52.992;8.856;2023-01-23T05:15:11;11.13;;;5.13;;
31206;SDS011;17834;52.992;8.856;2023-01-23T05:17:37;8.85;;;4.90;;
31206;SDS011;17834;52.992;8.856;2023-01-23T05:20:03;12.20;;;5.32;;
31206;SDS011;17834;52.992;8.856;2023-01-23T05:22:29;8.30;;;4.60;;
31206;SDS011;17834;52.992;8.856;2023-01-23T05:24:56;12.88;;;5.13;;
31206;SDS011;17834;52.992;8.856;2023-01-23T05:27:22;8.88;;;5.03;;
31206;SDS011;17834;52.992;8.856;2023-01-23T05:29:48;8.60;;;5.03;;
31206;SDS011;17834;52.992;8.856;2023-01-23T05:32:14;9.73;;;5.20;;
31206;SDS011;17834;52.992;8.856;2023-01-23T05:34:40;8.48;;;4.82;;
31206;SDS011;17834;52.992;8.856;2023-01-23T05:37:06;9.40;;;5.63;;
31206;SDS011;17834;52.992;8.856;2023-01-23T05:39:31;12.57;;;5.35;;
31206;SDS011;17834;52.992;8.856;2023-01-23T05:41:58;10.38;;;5.53;;
31206;SDS011;17834;52.992;8.856;2023-01-23T05:44:23;9.85;;;5.30;;
31206;SDS011;17834;52.992;8.856;2023-01-23T05:46:49;10.50;;;4.75;;
31206;SDS011;17834;52.992;8.856;2023-01-23T05:49:15;10.63;;;5.60;;
31206;SDS011;17834;52.992;8.856;2023-01-23T05:51:41;10.15;;;5.20;;
31206;SDS011;17834;52.992;8.856;2023-01-23T05:54:08;8.77;;;5.50;;
31206;SDS011;17834;52.992;8.856;2023-01-23T05:56:34;11.38;;;6.45;;
31206;SDS011;17834;52.992;8.856;2023-01-23T05:59:00;11.48;;;5.57;;
31206;SDS011;17834;52.992;8.856;2023-01-23T06:01:27;13.93;;;5.43;;
31206;SDS011;17834;52.992;8.856;2023-01-23T06:03:53;10.38;;;5.95;;
31206;SDS011;17834;52.992;8.856;2023-01-23T06:06:19;12.38;;;6.03;;
31206;SDS011;17834;52.992;8.856;2023-01-23T06:08:45;14.35;;;6.00;;
31206;SDS011;17834;52.992;8.856;2023-01-23T06:11:11;10.88;;;5.57;;
31206;SDS011;17834;52.992;8.856;2023-01-23T06:13:37;8.90;;;4.75;;
31206;SDS011;17834;52.992;8.856;2023-01-23T06:16:03;11.60;;;5.10;;
31206;SDS011;17834;52.992;8.856;2023-01-23T06:18:29;10.90;;;5.45;;
31206;SDS011;17834;52.992;8.856;2023-01-23T06:20:56;9.07;;;4.93;;
31206;SDS011;17834;52.992;8.856;2023-01-23T06:23:22;10.88;;;5.45;;
31206;SDS011;17834;52.992;8.856;2023-01-23T06:25:48;11.20;;;5.63;;
31206;SDS011;17834;52.992;8.856;2023-01-23T06:28:14;10.88;;;5.53;;
31206;SDS011;17834;52.992;8.856;2023-01-23T06:30:40;11.55;;;5.70;;
31206;SDS011;17834;52.992;8.856;2023-01-23T06:33:06;13.13;;;5.72;;
31206;SDS011;17834;52.992;8.856;2023-01-23T06:35:32;14.23;;;6.05;;
31206;SDS011;17834;52.992;8.856;2023-01-23T06:37:58;10.50;;;5.15;;
31206;SDS011;17834;52.992;8.856;2023-01-23T06:40:24;10.50;;;4.95;;
31206;SDS011;17834;52.992;8.856;2023-01-23T06:42:53;11.65;;;5.55;;
31206;SDS011;17834;52.992;8.856;2023-01-23T06:45:19;11.18;;;6.40;;
31206;SDS011;17834;52.992;8.856;2023-01-23T06:47:45;9.00;;;5.00;;
31206;SDS011;17834;52.992;8.856;2023-01-23T06:50:11;12.73;;;5.85;;
31206;SDS011;17834;52.992;8.856;2023-01-23T06:52:37;10.07;;;5.00;;
31206;SDS011;17834;52.992;8.856;2023-01-23T06:55:03;14.38;;;5.43;;
31206;SDS011;17834;52.992;8.856;2023-01-23T06:57:30;11.15;;;5.60;;
31206;SDS011;17834;52.992;8.856;2023-01-23T06:59:56;11.40;;;6.03;;
31206;SDS011;17834;52.992;8.856;2023-01-23T07:02:23;13.45;;;6.70;;
31206;SDS011;17834;52.992;8.856;2023-01-23T07:04:49;12.73;;;6.07;;
31206;SDS011;17834;52.992;8.856;2023-01-23T07:07:15;14.15;;;6.82;;
31206;SDS011;17834;52.992;8.856;2023-01-23T07:09:41;14.45;;;7.03;;
31206;SDS011;17834;52.992;8.856;2023-01-23T07:12:07;12.93;;;6.05;;
31206;SDS011;17834;52.992;8.856;2023-01-23T07:14:33;12.75;;;6.38;;
31206;SDS011;17834;52.992;8.856;2023-01-23T07:16:59;14.95;;;6.90;;
31206;SDS011;17834;52.992;8.856;2023-01-23T07:19:25;10.38;;;6.18;;
31206;SDS011;17834;52.992;8.856;2023-01-23T07:21:51;14.73;;;6.78;;
31206;SDS011;17834;52.992;8.856;2023-01-23T07:24:17;9.88;;;5.85;;
31206;SDS011;17834;52.992;8.856;2023-01-23T07:26:43;13.63;;;6.28;;
31206;SDS011;17834;52.992;8.856;2023-01-23T07:29:09;12.25;;;6.50;;
31206;SDS011;17834;52.992;8.856;2023-01-23T07:31:35;12.07;;;6.60;;
31206;SDS011;17834;52.992;8.856;2023-01-23T07:34:01;15.90;;;7.10;;
31206;SDS011;17834;52.992;8.856;2023-01-23T07:36:27;14.05;;;7.68;;
31206;SDS011;17834;52.992;8.856;2023-01-23T07:38:54;14.77;;;6.97;;
31206;SDS011;17834;52.992;8.856;2023-01-23T07:41:21;16.20;;;7.10;;
31206;SDS011;17834;52.992;8.856;2023-01-23T07:43:47;15.07;;;7.05;;
31206;SDS011;17834;52.992;8.856;2023-01-23T07:46:13;13.40;;;7.22;;
31206;SDS011;17834;52.992;8.856;2023-01-23T07:48:39;13.93;;;7.22;;
31206;SDS011;17834;52.992;8.856;2023-01-23T07:51:05;14.18;;;6.45;;
31206;SDS011;17834;52.992;8.856;2023-01-23T07:53:31;15.18;;;7.28;;
31206;SDS011;17834;52.992;8.856;2023-01-23T07:55:57;15.60;;;7.35;;
31206;SDS011;17834;52.992;8.856;2023-01-23T07:58:23;15.10;;;7.68;;
31206;SDS011;17834;52.992;8.856;2023-01-23T08:00:49;14.65;;;6.88;;
31206;SDS011;17834;52.992;8.856;2023-01-23T08:03:15;19.58;;;8.45;;
31206;SDS011;17834;52.992;8.856;2023-01-23T08:05:41;18.15;;;8.50;;
31206;SDS011;17834;52.992;8.856;2023-01-23T08:08:07;19.35;;;8.27;;
31206;SDS011;17834;52.992;8.856;2023-01-23T08:10:33;19.35;;;9.13;;
31206;SDS011;17834;52.992;8.856;2023-01-23T08:12:59;38.10;;;15.15;;
31206;SDS011;17834;52.992;8.856;2023-01-23T08:15:25;28.77;;;11.55;;
31206;SDS011;17834;52.992;8.856;2023-01-23T08:17:52;20.27;;;8.90;;
31206;SDS011;17834;52.992;8.856;2023-01-23T08:20:18;14.35;;;6.82;;
31206;SDS011;17834;52.992;8.856;2023-01-23T08:22:45;14.95;;;7.20;;
31206;SDS011;17834;52.992;8.856;2023-01-23T08:25:12;14.30;;;6.43;;
31206;SDS011;17834;52.992;8.856;2023-01-23T08:27:38;19.30;;;8.60;;
31206;SDS011;17834;52.992;8.856;2023-01-23T08:30:04;18.50;;;7.72;;
31206;SDS011;17834;52.992;8.856;2023-01-23T08:32:30;13.27;;;7.20;;
31206;SDS011;17834;52.992;8.856;2023-01-23T08:34:56;14.73;;;6.65;;
31206;SDS011;17834;52.992;8.856;2023-01-23T08:37:24;17.05;;;7.18;;
31206;SDS011;17834;52.992;8.856;2023-01-23T08:39:50;13.25;;;7.18;;
31206;SDS011;17834;52.992;8.856;2023-01-23T08:42:16;15.38;;;7.03;;
31206;SDS011;17834;52.992;8.856;2023-01-23T08:44:42;14.10;;;6.60;;
31206;SDS011;17834;52.992;8.856;2023-01-23T08:47:08;16.70;;;6.65;;
31206;SDS011;17834;52.992;8.856;2023-01-23T08:49:34;15.70;;;6.88;;
31206;SDS011;17834;52.992;8.856;2023-01-23T08:52:00;14.57;;;6.50;;
31206;SDS011;17834;52.992;8.856;2023-01-23T08:54:26;20.50;;;8.18;;
31206;SDS011;17834;52.992;8.856;2023-01-23T08:56:52;14.23;;;6.75;;
31206;SDS011;17834;52.992;8.856;2023-01-23T08:59:18;14.15;;;6.80;;
31206;SDS011;17834;52.992;8.856;2023-01-23T09:01:44;13.43;;;6.40;;
31206;SDS011;17834;52.992;8.856;2023-01-23T09:04:11;16.75;;;7.00;;
31206;SDS011;17834;52.992;8.856;2023-01-23T09:06:37;14.93;;;8.10;;
31206;SDS011;17834;52.992;8.856;2023-01-23T09:09:03;15.63;;;7.13;;
31206;SDS011;17834;52.992;8.856;2023-01-23T09:11:29;16.98;;;7.50;;
31206;SDS011;17834;52.992;8.856;2023-01-23T09:13:55;14.88;;;7.15;;
31206;SDS011;17834;52.992;8.856;2023-01-23T09:16:21;15.27;;;6.70;;
31206;SDS011;17834;52.992;8.856;2023-01-23T09:18:47;16.52;;;6.88;;
31206;SDS011;17834;52.992;8.856;2023-01-23T09:21:14;16.63;;;7.32;;
31206;SDS011;17834;52.992;8.856;2023-01-23T09:23:40;15.95;;;7.07;;
31206;SDS011;17834;52.992;8.856;2023-01-23T09:26:08;17.38;;;6.75;;
31206;SDS011;17834;52.992;8.856;2023-01-23T09:28:34;14.07;;;6.80;;
31206;SDS011;17834;52.992;8.856;2023-01-23T09:31:01;16.40;;;7.25;;
31206;SDS011;17834;52.992;8.856;2023-01-23T09:33:27;16.90;;;7.40;;
31206;SDS011;17834;52.992;8.856;2023-01-23T09:35:53;16.35;;;7.45;;
31206;SDS011;17834;52.992;8.856;2023-01-23T09:38:19;15.70;;;6.80;;
31206;SDS011;17834;52.992;8.856;2023-01-23T09:40:49;16.02;;;6.63;;
31206;SDS011;17834;52.992;8.856;2023-01-23T09:43:19;14.90;;;7.32;;
31206;SDS011;17834;52.992;8.856;2023-01-23T09:48:42;14.48;;;6.38;;
31206;SDS011;17834;52.992;8.856;2023-01-23T09:51:13;13.73;;;7.15;;
31206;SDS011;17834;52.992;8.856;2023-01-23T09:53:41;16.00;;;6.82;;
31206;SDS011;17834;52.992;8.856;2023-01-23T09:56:20;13.38;;;6.65;;
31206;SDS011;17834;52.992;8.856;2023-01-23T09:58:57;14.13;;;6.60;;
31206;SDS011;17834;52.992;8.856;2023-01-23T10:01:24;21.13;;;7.50;;
31206;SDS011;17834;52.992;8.856;2023-01-23T10:03:50;15.50;;;7.05;;
31206;SDS011;17834;52.992;8.856;2023-01-23T10:19:25;15.13;;;6.88;;
31206;SDS011;17834;52.992;8.856;2023-01-23T10:26:51;15.80;;;7.75;;
31206;SDS011;17834;52.992;8.856;2023-01-23T10:31:47;16.95;;;7.13;;
31206;SDS011;17834;52.992;8.856;2023-01-23T10:34:19;15.93;;;7.03;;
31206;SDS011;17834;52.992;8.856;2023-01-23T10:39:36;17.45;;;6.85;;
31206;SDS011;17834;52.992;8.856;2023-01-23T10:42:10;16.73;;;6.93;;
31206;SDS011;17834;52.992;8.856;2023-01-23T10:44:37;16.83;;;7.18;;
31206;SDS011;17834;52.992;8.856;2023-01-23T10:47:03;13.15;;;6.53;;
31206;SDS011;17834;52.992;8.856;2023-01-23T10:49:35;14.82;;;6.63;;
31206;SDS011;17834;52.992;8.856;2023-01-23T10:52:02;16.20;;;6.82;;
31206;SDS011;17834;52.992;8.856;2023-01-23T10:54:29;15.05;;;7.68;;
31206;SDS011;17834;52.992;8.856;2023-01-23T10:59:34;17.55;;;6.85;;
31206;SDS011;17834;52.992;8.856;2023-01-23T11:02:45;15.50;;;6.93;;
31206;SDS011;17834;52.992;8.856;2023-01-23T11:04:47;18.73;;;7.13;;
31206;SDS011;17834;52.992;8.856;2023-01-23T11:09:45;15.13;;;7.10;;
31206;SDS011;17834;52.992;8.856;2023-01-23T11:12:15;12.70;;;6.80;;
31206;SDS011;17834;52.992;8.856;2023-01-23T11:14:42;15.70;;;7.22;;
31206;SDS011;17834;52.992;8.856;2023-01-23T11:17:13;18.70;;;7.68;;
31206;SDS011;17834;52.992;8.856;2023-01-23T11:19:39;17.38;;;7.40;;
31206;SDS011;17834;52.992;8.856;2023-01-23T11:22:20;19.70;;;9.35;;
31206;SDS011;17834;52.992;8.856;2023-01-23T11:24:47;20.75;;;7.97;;
31206;SDS011;17834;52.992;8.856;2023-01-23T11:32:15;16.38;;;8.27;;
31206;SDS011;17834;52.992;8.856;2023-01-23T11:34:45;15.23;;;7.03;;
31206;SDS011;17834;52.992;8.856;2023-01-23T11:42:11;22.13;;;7.93;;
31206;SDS011;17834;52.992;8.856;2023-01-23T11:44:38;18.77;;;8.20;;
31206;SDS011;17834;52.992;8.856;2023-01-23T11:47:09;21.00;;;7.78;;
31206;SDS011;17834;52.992;8.856;2023-01-23T11:52:10;23.80;;;10.23;;
31206;SDS011;17834;52.992;8.856;2023-01-23T11:55:01;20.45;;;9.30;;
31206;SDS011;17834;52.992;8.856;2023-01-23T12:00:20;20.50;;;8.85;;
31206;SDS011;17834;52.992;8.856;2023-01-23T12:03:06;19.20;;;8.10;;
31206;SDS011;17834;52.992;8.856;2023-01-23T12:05:48;17.67;;;8.07;;
31206;SDS011;17834;52.992;8.856;2023-01-23T12:08:22;15.50;;;8.45;;
31206;SDS011;17834;52.992;8.856;2023-01-23T12:10:59;20.48;;;8.43;;
31206;SDS011;17834;52.992;8.856;2023-01-23T12:13:55;21.35;;;8.40;;
31206;SDS011;17834;52.992;8.856;2023-01-23T12:16:28;20.85;;;8.57;;
31206;SDS011;17834;52.992;8.856;2023-01-23T12:26:25;17.05;;;8.68;;
31206;SDS011;17834;52.992;8.856;2023-01-23T12:28:56;22.08;;;9.77;;
31206;SDS011;17834;52.992;8.856;2023-01-23T12:31:31;19.73;;;8.57;;
31206;SDS011;17834;52.992;8.856;2023-01-23T12:41:52;19.33;;;8.20;;
31206;SDS011;17834;52.992;8.856;2023-01-23T12:47:37;18.65;;;8.98;;
31206;SDS011;17834;52.992;8.856;2023-01-23T12:49:44;18.38;;;8.93;;
31206;SDS011;17834;52.992;8.856;2023-01-23T12:55:12;21.10;;;8.77;;
31206;SDS011;17834;52.992;8.856;2023-01-23T12:57:39;21.05;;;9.10;;
31206;SDS011;17834;52.992;8.856;2023-01-23T13:05:20;22.45;;;8.80;;
31206;SDS011;17834;52.992;8.856;2023-01-23T13:07:56;22.55;;;9.27;;
31206;SDS011;17834;52.992;8.856;2023-01-23T13:10:28;22.40;;;9.57;;
31206;SDS011;17834;52.992;8.856;2023-01-23T13:13:16;21.05;;;9.13;;
31206;SDS011;17834;52.992;8.856;2023-01-23T13:15:42;22.17;;;9.77;;
31206;SDS011;17834;52.992;8.856;2023-01-23T13:18:20;20.63;;;9.20;;
31206;SDS011;17834;52.992;8.856;2023-01-23T13:23:48;20.02;;;9.82;;
31206;SDS011;17834;52.992;8.856;2023-01-23T13:26:34;19.38;;;9.35;;
31206;SDS011;17834;52.992;8.856;2023-01-23T13:29:01;19.33;;;8.73;;
31206;SDS011;17834;52.992;8.856;2023-01-23T13:31:44;19.48;;;8.75;;
31206;SDS011;17834;52.992;8.856;2023-01-23T13:34:33;18.25;;;8.93;;
31206;SDS011;17834;52.992;8.856;2023-01-23T13:37:30;19.80;;;9.13;;
31206;SDS011;17834;52.992;8.856;2023-01-23T13:39:52;21.83;;;9.65;;
31206;SDS011;17834;52.992;8.856;2023-01-23T13:47:36;20.20;;;8.23;;
31206;SDS011;17834;52.992;8.856;2023-01-23T13:50:27;23.08;;;9.80;;
31206;SDS011;17834;52.992;8.856;2023-01-23T13:52:57;18.30;;;9.52;;
31206;SDS011;17834;52.992;8.856;2023-01-23T13:55:45;17.52;;;9.10;;
31206;SDS011;17834;52.992;8.856;2023-01-23T13:58:30;20.00;;;8.90;;
31206;SDS011;17834;52.992;8.856;2023-01-23T14:01:04;21.70;;;9.65;;
31206;SDS011;17834;52.992;8.856;2023-01-23T14:03:53;22.88;;;9.68;;
31206;SDS011;17834;52.992;8.856;2023-01-23T14:06:39;22.38;;;10.45;;
31206;SDS011;17834;52.992;8.856;2023-01-23T14:09:41;21.77;;;10.10;;
31206;SDS011;17834;52.992;8.856;2023-01-23T14:11:58;22.98;;;10.52;;
31206;SDS011;17834;52.992;8.856;2023-01-23T14:14:26;20.67;;;10.00;;
31206;SDS011;17834;52.992;8.856;2023-01-23T14:17:11;22.30;;;9.95;;
31206;SDS011;17834;52.992;8.856;2023-01-23T14:19:37;23.17;;;10.13;;
31206;SDS011;17834;52.992;8.856;2023-01-23T14:22:10;19.05;;;10.63;;
31206;SDS011;17834;52.992;8.856;2023-01-23T14:24:46;21.63;;;10.05;;
31206;SDS011;17834;52.992;8.856;2023-01-23T14:27:36;24.13;;;10.40;;
31206;SDS011;17834;52.992;8.856;2023-01-23T14:32:27;21.63;;;10.25;;
31206;SDS011;17834;52.992;8.856;2023-01-23T14:34:54;18.15;;;9.82;;
31206;SDS011;17834;52.992;8.856;2023-01-23T14:37:20;20.63;;;10.05;;
31206;SDS011;17834;52.992;8.856;2023-01-23T14:39:46;21.90;;;10.30;;
31206;SDS011;17834;52.992;8.856;2023-01-23T14:42:22;21.08;;;9.98;;
31206;SDS011;17834;52.992;8.856;2023-01-23T14:44:49;22.17;;;10.40;;
31206;SDS011;17834;52.992;8.856;2023-01-23T14:47:25;18.80;;;8.82;;
31206;SDS011;17834;52.992;8.856;2023-01-23T14:49:53;19.15;;;9.68;;
31206;SDS011;17834;52.992;8.856;2023-01-23T14:52:21;16.27;;;9.45;;
31206;SDS011;17834;52.992;8.856;2023-01-23T14:54:47;22.38;;;9.77;;
31206;SDS011;17834;52.992;8.856;2023-01-23T14:57:13;25.15;;;10.23;;
31206;SDS011;17834;52.992;8.856;2023-01-23T14:59:40;21.95;;;10.40;;
31206;SDS011;17834;52.992;8.856;2023-01-23T15:05:08;19.58;;;8.60;;
31206;SDS011;17834;52.992;8.856;2023-01-23T15:07:41;19.25;;;9.25;;
31206;SDS011;17834;52.992;8.856;2023-01-23T15:10:29;20.90;;;9.45;;
31206;SDS011;17834;52.992;8.856;2023-01-23T15:15:20;20.17;;;9.35;;
31206;SDS011;17834;52.992;8.856;2023-01-23T15:17:46;17.25;;;9.25;;
31206;SDS011;17834;52.992;8.856;2023-01-23T15:22:57;19.58;;;9.50;;
31206;SDS011;17834;52.992;8.856;2023-01-23T15:25:30;18.85;;;8.88;;
31206;SDS011;17834;52.992;8.856;2023-01-23T15:27:56;19.88;;;9.60;;
31206;SDS011;17834;52.992;8.856;2023-01-23T15:33:01;17.83;;;9.07;;
31206;SDS011;17834;52.992;8.856;2023-01-23T15:35:32;20.27;;;9.30;;
31206;SDS011;17834;52.992;8.856;2023-01-23T15:37:58;19.85;;;9.95;;
31206;SDS011;17834;52.992;8.856;2023-01-23T15:40:29;20.27;;;10.20;;
31206;SDS011;17834;52.992;8.856;2023-01-23T15:43:02;16.48;;;9.13;;
31206;SDS011;17834;52.992;8.856;2023-01-23T15:45:29;18.05;;;9.88;;
31206;SDS011;17834;52.992;8.856;2023-01-23T15:47:55;17.67;;;9.13;;
31206;SDS011;17834;52.992;8.856;2023-01-23T15:50:21;17.10;;;8.60;;
31206;SDS011;17834;52.992;8.856;2023-01-23T15:52:49;19.80;;;9.52;;
31206;SDS011;17834;52.992;8.856;2023-01-23T15:55:15;17.88;;;9.18;;
31206;SDS011;17834;52.992;8.856;2023-01-23T15:57:42;22.40;;;9.80;;
31206;SDS011;17834;52.992;8.856;2023-01-23T16:00:21;20.13;;;10.02;;
31206;SDS011;17834;52.992;8.856;2023-01-23T16:02:51;17.42;;;9.35;;
31206;SDS011;17834;52.992;8.856;2023-01-23T16:05:18;19.00;;;10.63;;
31206;SDS011;17834;52.992;8.856;2023-01-23T16:07:44;27.67;;;10.02;;
31206;SDS011;17834;52.992;8.856;2023-01-23T16:10:18;21.45;;;9.20;;
31206;SDS011;17834;52.992;8.856;2023-01-23T16:12:44;17.33;;;9.55;;
31206;SDS011;17834;52.992;8.856;2023-01-23T16:15:23;21.92;;;9.75;;
31206;SDS011;17834;52.992;8.856;2023-01-23T16:17:49;25.17;;;10.27;;
31206;SDS011;17834;52.992;8.856;2023-01-23T16:20:22;19.55;;;10.18;;
31206;SDS011;17834;52.992;8.856;2023-01-23T16:22:51;27.00;;;11.43;;
31206;SDS011;17834;52.992;8.856;2023-01-23T16:25:18;20.52;;;9.98;;
31206;SDS011;17834;52.992;8.856;2023-01-23T16:27:47;24.95;;;11.00;;